Pagrindinis puslapis
METAR-TAF:

METAR-TAF

Oro uostai :

Murmanskas, Rusija

platuma: 68-58N, ilguma: 033-03E, Aukštis: 51 m

Dabartinis oras

Ataskaita buvo paskelbta 44 minutes, ne 22:00 UTC
Vėjas 2 kt iš Pietų/Pietryčių
Temperatūra 20°C
Drėgmė 78%
Slėgis 1015 hPa
Matomumas 10 km arba daugiau
nėra debesų žemiau 1500 m ir nėra kamuolinių lietaus debesų

METAR: ULMM 022200Z 15001MPS CAVOK 20/16 Q1015 R13/090070 NOSIG RMK QFE754

Laikas: 01:44 (22:44 UTC)

Prognozė

Ataskaita buvo paskelbta 2 valandos ir 54 minutes, ne 19:50 UTC
Prognozė galioja nuo 02 metu 21 UTC su 03 metu 21 UTC
Vėjas 6 kt iš Pietų su gūsio iki 16 kt
Matomumas 10 km arba daugiau
Išsisklaidę debesys ne aukštis 2000 ft
Laikinai
nuo 03 metu 08 UTC su 03 metu 21 UTC
Vėjas 10 kt iš Pietvakarių su gūsio iki 19 kt
Su prošvaistėmis ne aukštis 2000 ft, Liūtiniai kamuoliniai debesys.
perkūnija, lietus

TAF: ULMM 021950Z 0221/0321 19003G08MPS 9999 SCT020 TEMPO 0308/0321 22005G10MPS -TSRA BKN020CB

Orai ataskaitas ir orų prognozės (METAR, TAF).

turimą stotys yra geltonos ir raudonos taškus žemėlapyje.

Perkelti pele per norėdami pamatyti stoties vardą.

Tada spustelėkite, norėdami matyti oro stebėjimo ir prognozės.

Norėdami pakeisti žemėlapį: spustelėkite ant žalios mygtukų su juodo kryžiaus žemyn,; žalią mygtuką su brūkšneliu, jei norite nutolinti; arba žalių rodyklių gretimoms žemėlapius.


METAR-TAF: